Time;durP1;ratioP1;P1;durP2;ratioP2;P2;SDS_P1;SDS_P2;PMS_P1;PMS_P2;Temp;Humidity;BMP_temperature;BMP_pressure;BME280_temperature;BME280_humidity;BME280_pressure;Samples;Min_cycle;Max_cycle;Signal;HPM_P1;HPM_P2
2021/08/02 00:00:03;;;;;;;8.23;5.00;;;;;;;;;;4906935;29;20258;-73
2021/08/02 00:02:36;;;;;;;8.30;5.10;;;;;;;;;;4902165;29;20212;-73
2021/08/02 00:05:04;;;;;;;8.03;4.87;;;;;;;;;;4907333;29;20218;-73
2021/08/02 00:07:33;;;;;;;7.13;4.67;;;;;;;;;;4903082;29;20217;-73
2021/08/02 00:10:06;;;;;;;6.40;4.70;;;;;;;;;;4903427;29;20225;-73
2021/08/02 00:12:37;;;;;;;6.47;4.43;;;;;;;;;;4905142;29;20215;-73
2021/08/02 00:15:04;;;;;;;5.63;4.17;;;;;;;;;;4906176;29;20215;-73
2021/08/02 00:17:33;;;;;;;8.90;4.57;;;;;;;;;;4908143;29;20298;-73
2021/08/02 00:20:00;;;;;;;11.57;5.03;;;;;;;;;;4911688;29;20645;-73
2021/08/02 00:22:28;;;;;;;8.43;4.50;;;;;;;;;;4906817;29;20581;-73
2021/08/02 00:24:55;;;;;;;6.90;4.60;;;;;;;;;;4904625;29;20264;-73
2021/08/02 00:27:22;;;;;;;8.10;5.20;;;;;;;;;;4911279;29;20243;-73
2021/08/02 00:29:50;;;;;;;7.57;4.57;;;;;;;;;;4904259;29;20244;-73
2021/08/02 00:32:18;;;;;;;9.93;5.00;;;;;;;;;;4915430;29;20654;-73
2021/08/02 00:34:47;;;;;;;9.70;5.23;;;;;;;;;;4907608;29;20325;-73
2021/08/02 00:37:19;;;;;;;7.93;4.90;;;;;;;;;;4912808;29;20410;-73
2021/08/02 00:39:48;;;;;;;8.07;5.37;;;;;;;;;;4907204;29;20241;-73
2021/08/02 00:42:35;;;;;;;9.90;5.43;;;;;;;;;;4909521;29;20602;-74
2021/08/02 00:45:10;;;;;;;8.33;5.00;;;;;;;;;;4904972;29;20208;-73
2021/08/02 00:47:38;;;;;;;9.43;5.40;;;;;;;;;;4905774;29;20253;-74
2021/08/02 00:50:08;;;;;;;13.53;5.57;;;;;;;;;;4902875;29;20320;-73
2021/08/02 00:52:36;;;;;;;10.17;5.57;;;;;;;;;;4903051;29;20204;-73
2021/08/02 00:55:05;;;;;;;9.07;6.33;;;;;;;;;;4908455;29;20216;-74
2021/08/02 00:57:36;;;;;;;8.17;5.40;;;;;;;;;;4904465;29;20678;-73
2021/08/02 01:37:24;;;;;;;12.40;8.10;;;;;;;;;;4930605;23;20652;-84
2021/08/02 01:39:53;;;;;;;17.60;8.13;;;;;;;;;;4927976;29;21539;-83
2021/08/02 01:42:21;;;;;;;15.30;8.80;;;;;;;;;;4919527;29;20680;-83
2021/08/02 01:44:48;;;;;;;13.10;8.50;;;;;;;;;;4920422;29;20245;-83
2021/08/02 01:47:18;;;;;;;14.07;8.33;;;;;;;;;;4915493;29;20244;-83
2021/08/02 01:49:49;;;;;;;15.37;8.83;;;;;;;;;;4911525;29;20228;-83
2021/08/02 01:52:18;;;;;;;15.27;8.77;;;;;;;;;;4908126;29;20291;-82
2021/08/02 01:54:52;;;;;;;13.57;8.73;;;;;;;;;;4914454;29;20304;-83
2021/08/02 01:57:22;;;;;;;16.63;8.33;;;;;;;;;;4901935;29;20723;-83
2021/08/02 01:59:52;;;;;;;13.60;9.20;;;;;;;;;;4912214;29;20311;-82
2021/08/02 02:02:19;;;;;;;15.10;9.30;;;;;;;;;;4905771;29;20668;-83
2021/08/02 02:04:50;;;;;;;14.60;8.33;;;;;;;;;;4908492;29;20299;-83
2021/08/02 02:07:18;;;;;;;14.20;9.40;;;;;;;;;;4912490;29;20287;-82
2021/08/02 02:09:47;;;;;;;15.10;9.40;;;;;;;;;;4904848;29;20288;-83
2021/08/02 02:12:15;;;;;;;17.17;10.13;;;;;;;;;;4902195;29;20295;-83
2021/08/02 02:14:43;;;;;;;15.60;10.20;;;;;;;;;;4908460;29;20211;-83
2021/08/02 02:17:10;;;;;;;17.23;10.43;;;;;;;;;;4911312;29;20314;-83
2021/08/02 02:19:38;;;;;;;16.57;10.70;;;;;;;;;;4910760;29;20732;-83
2021/08/02 02:22:06;;;;;;;16.13;10.23;;;;;;;;;;4907894;29;20302;-83
2021/08/02 02:24:36;;;;;;;15.27;9.40;;;;;;;;;;4906498;29;20284;-82
2021/08/02 02:27:05;;;;;;;16.10;10.43;;;;;;;;;;4912766;29;20231;-83
2021/08/02 02:29:33;;;;;;;15.03;9.57;;;;;;;;;;4912779;29;20323;-83
2021/08/02 02:32:01;;;;;;;16.87;10.07;;;;;;;;;;4911160;29;20208;-83
2021/08/02 02:34:29;;;;;;;17.03;10.30;;;;;;;;;;4915060;29;20224;-84
2021/08/02 02:36:57;;;;;;;15.10;9.90;;;;;;;;;;4913036;29;20787;-83
2021/08/02 02:39:24;;;;;;;20.63;10.63;;;;;;;;;;4910755;29;20212;-83
2021/08/02 02:41:52;;;;;;;17.80;10.60;;;;;;;;;;4915663;29;20211;-83
2021/08/02 02:44:21;;;;;;;18.70;10.53;;;;;;;;;;4920662;29;20215;-83
2021/08/02 02:46:49;;;;;;;17.00;10.63;;;;;;;;;;4913514;29;20224;-83
2021/08/02 02:49:17;;;;;;;19.83;10.67;;;;;;;;;;4896736;29;20227;-84
2021/08/02 02:51:45;;;;;;;21.77;11.60;;;;;;;;;;4899879;29;20272;-83
2021/08/02 02:54:12;;;;;;;16.87;11.07;;;;;;;;;;4910531;29;20267;-83
2021/08/02 02:56:39;;;;;;;19.30;12.07;;;;;;;;;;4914853;29;20226;-82
2021/08/02 02:59:06;;;;;;;19.17;11.90;;;;;;;;;;4910677;29;20298;-82
2021/08/02 03:01:39;;;;;;;18.57;10.80;;;;;;;;;;4911766;29;20278;-82
2021/08/02 03:04:07;;;;;;;20.23;11.10;;;;;;;;;;4908926;29;20295;-82
2021/08/02 03:06:35;;;;;;;18.03;11.07;;;;;;;;;;4909327;29;20310;-82
2021/08/02 03:09:03;;;;;;;20.33;11.20;;;;;;;;;;4912272;29;20331;-82
2021/08/02 03:11:30;;;;;;;17.53;10.40;;;;;;;;;;4911896;29;20307;-82
2021/08/02 03:13:57;;;;;;;22.50;11.27;;;;;;;;;;4909716;29;20585;-82
2021/08/02 03:16:27;;;;;;;19.33;11.67;;;;;;;;;;4911410;29;20326;-82
2021/08/02 03:18:56;;;;;;;19.23;12.00;;;;;;;;;;4914288;29;20215;-82
2021/08/02 03:21:23;;;;;;;19.40;11.90;;;;;;;;;;4908941;29;20207;-83
2021/08/02 03:23:59;;;;;;;24.23;12.50;;;;;;;;;;4912916;29;20255;-82
2021/08/02 03:26:30;;;;;;;21.03;12.97;;;;;;;;;;4911804;29;20266;-82
2021/08/02 03:28:59;;;;;;;21.73;12.77;;;;;;;;;;4907659;29;20228;-83
2021/08/02 03:31:29;;;;;;;20.57;12.27;;;;;;;;;;4905066;29;20575;-83
2021/08/02 03:33:59;;;;;;;21.23;12.50;;;;;;;;;;4905365;29;20786;-83
2021/08/02 03:36:27;;;;;;;20.60;11.90;;;;;;;;;;4897159;29;20240;-83
2021/08/02 03:38:55;;;;;;;20.37;12.20;;;;;;;;;;4904259;29;20310;-83
2021/08/02 03:41:23;;;;;;;17.90;11.90;;;;;;;;;;4904807;29;20295;-83
2021/08/02 03:43:51;;;;;;;20.07;11.57;;;;;;;;;;4902410;29;20237;-83
2021/08/02 03:46:19;;;;;;;18.13;12.03;;;;;;;;;;4906005;29;20257;-83
2021/08/02 03:48:46;;;;;;;19.57;11.70;;;;;;;;;;4905220;29;20254;-82
2021/08/02 03:51:15;;;;;;;16.77;11.10;;;;;;;;;;4904923;29;20264;-83
2021/08/02 03:53:42;;;;;;;17.23;10.90;;;;;;;;;;4903884;29;20216;-83
2021/08/02 03:56:10;;;;;;;17.27;10.73;;;;;;;;;;4901189;29;20702;-82
2021/08/02 03:58:37;;;;;;;19.43;10.60;;;;;;;;;;4908310;29;20327;-83
2021/08/02 04:01:05;;;;;;;18.33;11.57;;;;;;;;;;4897863;29;20209;-83
2021/08/02 04:03:32;;;;;;;15.83;10.53;;;;;;;;;;4894213;29;20295;-82
2021/08/02 04:06:00;;;;;;;19.53;10.47;;;;;;;;;;4889853;29;20242;-83
2021/08/02 04:08:28;;;;;;;17.37;10.77;;;;;;;;;;4894982;29;20212;-83
2021/08/02 04:10:56;;;;;;;18.70;10.97;;;;;;;;;;4907471;29;20224;-83
2021/08/02 04:13:23;;;;;;;19.53;10.50;;;;;;;;;;4900127;29;20579;-84
2021/08/02 04:15:50;;;;;;;18.53;11.43;;;;;;;;;;4905439;29;20239;-82
2021/08/02 04:18:17;;;;;;;18.50;10.13;;;;;;;;;;4903862;29;20664;-83
2021/08/02 04:20:44;;;;;;;18.37;10.73;;;;;;;;;;4900530;29;20204;-83
2021/08/02 04:23:12;;;;;;;16.03;10.77;;;;;;;;;;4900565;29;20231;-82
2021/08/02 04:25:41;;;;;;;17.37;10.60;;;;;;;;;;4902103;29;20205;-82
2021/08/02 04:28:08;;;;;;;18.43;10.60;;;;;;;;;;4897137;29;20256;-82
2021/08/02 04:30:35;;;;;;;16.90;11.13;;;;;;;;;;4893615;29;20279;-82
2021/08/02 04:33:02;;;;;;;17.37;10.40;;;;;;;;;;4891554;29;20291;-82
2021/08/02 04:35:30;;;;;;;16.67;10.63;;;;;;;;;;4894241;29;20638;-83
2021/08/02 04:37:57;;;;;;;17.07;10.83;;;;;;;;;;4892804;29;20237;-83
2021/08/02 04:40:24;;;;;;;19.07;10.70;;;;;;;;;;4886742;29;20272;-79
2021/08/02 04:42:53;;;;;;;18.30;10.60;;;;;;;;;;4888725;29;20213;-81
2021/08/02 04:45:20;;;;;;;17.73;10.77;;;;;;;;;;4900845;29;20640;-80
2021/08/02 04:47:47;;;;;;;18.23;11.40;;;;;;;;;;4906934;29;20329;-80
2021/08/02 04:50:14;;;;;;;17.10;10.83;;;;;;;;;;4911732;29;20317;-81
2021/08/02 04:52:42;;;;;;;14.73;10.10;;;;;;;;;;4894423;29;21059;-81
2021/08/02 04:55:10;;;;;;;16.77;10.77;;;;;;;;;;4892396;29;20208;-82
2021/08/02 04:57:37;;;;;;;18.60;10.57;;;;;;;;;;4888501;29;20296;-81
2021/08/02 05:00:06;;;;;;;18.83;11.30;;;;;;;;;;4893744;29;20228;-82
2021/08/02 05:02:34;;;;;;;18.00;10.57;;;;;;;;;;4902313;29;20287;-81
2021/08/02 05:05:01;;;;;;;17.30;9.80;;;;;;;;;;4894251;29;20626;-81
2021/08/02 05:07:28;;;;;;;16.60;10.40;;;;;;;;;;4894247;29;20509;-81
2021/08/02 05:09:55;;;;;;;14.97;10.13;;;;;;;;;;4894283;29;20330;-81
2021/08/02 05:12:22;;;;;;;17.07;10.80;;;;;;;;;;4897955;29;20236;-82
2021/08/02 05:14:50;;;;;;;16.13;10.50;;;;;;;;;;4888913;29;20209;-81
2021/08/02 05:17:18;;;;;;;15.97;9.50;;;;;;;;;;4897325;29;20384;-82
2021/08/02 05:19:45;;;;;;;15.63;9.17;;;;;;;;;;4891618;29;20211;-81
2021/08/02 05:22:12;;;;;;;14.27;8.63;;;;;;;;;;4896881;29;20291;-81
2021/08/02 05:24:39;;;;;;;12.37;8.37;;;;;;;;;;4898820;29;20212;-81
2021/08/02 05:27:07;;;;;;;13.27;8.57;;;;;;;;;;4912092;29;20769;-80
2021/08/02 05:29:34;;;;;;;13.57;8.57;;;;;;;;;;4913194;29;20611;-80
2021/08/02 05:32:02;;;;;;;14.43;9.87;;;;;;;;;;4911268;29;20245;-81
2021/08/02 05:34:30;;;;;;;14.13;9.07;;;;;;;;;;4895797;29;20612;-81
2021/08/02 05:36:58;;;;;;;13.47;8.50;;;;;;;;;;4895203;29;20300;-82
2021/08/02 05:39:25;;;;;;;15.03;9.73;;;;;;;;;;4899368;29;20200;-82
2021/08/02 05:41:52;;;;;;;14.47;9.30;;;;;;;;;;4900213;29;20208;-82
2021/08/02 05:44:19;;;;;;;14.07;8.63;;;;;;;;;;4912183;29;20257;-82
2021/08/02 05:46:46;;;;;;;13.90;8.00;;;;;;;;;;4908462;29;20285;-82
2021/08/02 05:49:14;;;;;;;13.37;8.30;;;;;;;;;;4913694;29;20256;-81
2021/08/02 05:51:42;;;;;;;13.50;8.03;;;;;;;;;;4901033;29;20210;-82
2021/08/02 05:54:10;;;;;;;14.47;8.83;;;;;;;;;;4909481;29;20220;-81
2021/08/02 05:56:37;;;;;;;13.63;8.97;;;;;;;;;;4904330;29;20242;-83
2021/08/02 05:59:04;;;;;;;13.77;9.33;;;;;;;;;;4914037;29;20212;-82
2021/08/02 06:01:31;;;;;;;14.23;8.37;;;;;;;;;;4923799;29;20665;-81
2021/08/02 06:03:58;;;;;;;16.63;9.03;;;;;;;;;;4907155;29;20311;-82
2021/08/02 06:06:25;;;;;;;22.90;10.10;;;;;;;;;;4911267;29;20625;-81
2021/08/02 06:08:54;;;;;;;12.17;8.13;;;;;;;;;;4914269;29;20219;-81
2021/08/02 06:11:21;;;;;;;13.63;8.70;;;;;;;;;;4901206;29;20220;-81
2021/08/02 06:13:49;;;;;;;12.93;8.77;;;;;;;;;;4900317;29;20211;-82
2021/08/02 06:16:20;;;;;;;14.30;9.10;;;;;;;;;;4899450;29;20232;-81
2021/08/02 06:18:47;;;;;;;14.43;9.10;;;;;;;;;;4902317;29;20215;-82
2021/08/02 06:21:15;;;;;;;15.30;9.47;;;;;;;;;;4894777;29;20236;-82
2021/08/02 06:23:42;;;;;;;16.27;9.50;;;;;;;;;;4894936;29;20213;-81
2021/08/02 06:26:10;;;;;;;15.20;10.50;;;;;;;;;;4911040;29;20241;-81
2021/08/02 06:28:37;;;;;;;14.07;9.63;;;;;;;;;;4915760;29;20286;-81
2021/08/02 06:31:05;;;;;;;16.13;9.73;;;;;;;;;;4906149;29;20614;-81
2021/08/02 06:33:32;;;;;;;16.17;9.37;;;;;;;;;;4907085;29;20232;-81
2021/08/02 06:35:59;;;;;;;15.80;9.40;;;;;;;;;;4908222;29;20265;-81
2021/08/02 06:38:32;;;;;;;15.97;10.47;;;;;;;;;;4912949;29;20219;-80
2021/08/02 06:40:59;;;;;;;16.53;9.60;;;;;;;;;;4911549;29;20204;-80
2021/08/02 06:43:27;;;;;;;14.73;9.77;;;;;;;;;;4913846;29;20207;-80
2021/08/02 06:45:54;;;;;;;18.37;9.30;;;;;;;;;;4914004;29;20215;-80
2021/08/02 06:48:22;;;;;;;14.63;9.80;;;;;;;;;;4911420;29;20626;-82
2021/08/02 06:50:49;;;;;;;14.23;9.37;;;;;;;;;;4911459;29;20314;-80
2021/08/02 06:53:18;;;;;;;14.57;9.70;;;;;;;;;;4915111;29;20208;-80
2021/08/02 06:55:47;;;;;;;13.80;9.33;;;;;;;;;;4915666;29;20222;-80
2021/08/02 06:58:14;;;;;;;13.33;9.03;;;;;;;;;;4910812;29;20682;-82
2021/08/02 07:00:43;;;;;;;16.23;9.40;;;;;;;;;;4908568;29;20295;-80
2021/08/02 07:03:10;;;;;;;17.10;9.70;;;;;;;;;;4911818;29;20470;-80
2021/08/02 07:05:37;;;;;;;14.50;9.23;;;;;;;;;;4909775;29;20221;-80
2021/08/02 07:08:04;;;;;;;13.23;8.87;;;;;;;;;;4905195;29;20341;-81
2021/08/02 07:10:32;;;;;;;15.60;9.37;;;;;;;;;;4900392;29;20315;-80
2021/08/02 07:12:59;;;;;;;15.47;9.77;;;;;;;;;;4911374;29;20222;-81
2021/08/02 07:15:26;;;;;;;14.90;9.17;;;;;;;;;;4896945;29;20295;-82
2021/08/02 07:17:55;;;;;;;15.33;9.63;;;;;;;;;;4904164;29;20235;-80
2021/08/02 07:20:22;;;;;;;14.07;9.20;;;;;;;;;;4905800;29;20221;-82
2021/08/02 07:22:51;;;;;;;14.60;9.20;;;;;;;;;;4911017;29;20204;-81
2021/08/02 07:25:18;;;;;;;13.33;9.20;;;;;;;;;;4907489;29;20211;-81
2021/08/02 07:27:45;;;;;;;15.03;9.07;;;;;;;;;;4905855;29;20235;-82
2021/08/02 07:30:13;;;;;;;11.87;8.13;;;;;;;;;;4910132;29;20238;-80
2021/08/02 07:32:40;;;;;;;12.97;8.50;;;;;;;;;;4904223;29;20252;-81
2021/08/02 07:35:09;;;;;;;13.47;8.80;;;;;;;;;;4912450;29;20259;-82
2021/08/02 07:37:40;;;;;;;15.57;9.53;;;;;;;;;;4920086;23;20232;-74
2021/08/02 07:40:08;;;;;;;13.27;8.50;;;;;;;;;;4905768;29;20235;-74
2021/08/02 07:42:35;;;;;;;11.23;7.80;;;;;;;;;;4903935;29;20834;-74
2021/08/02 07:45:02;;;;;;;13.10;8.20;;;;;;;;;;4906659;29;20218;-74
2021/08/02 07:47:29;;;;;;;14.47;9.00;;;;;;;;;;4912272;29;20378;-74
2021/08/02 07:49:56;;;;;;;8.03;6.27;;;;;;;;;;4907653;29;20231;-74
2021/08/02 07:52:25;;;;;;;13.13;8.40;;;;;;;;;;4910015;29;20670;-74
2021/08/02 07:54:52;;;;;;;12.23;8.73;;;;;;;;;;4906817;29;20235;-74
2021/08/02 07:57:19;;;;;;;11.83;7.80;;;;;;;;;;4910955;29;20330;-74
2021/08/02 07:59:46;;;;;;;12.10;8.47;;;;;;;;;;4906356;29;20232;-73
2021/08/02 08:02:14;;;;;;;12.83;8.27;;;;;;;;;;4906554;29;20246;-74
2021/08/02 08:07:53;;;;;;;10.73;6.90;;;;;;;;;;4908853;29;20199;-73
2021/08/02 08:10:21;;;;;;;12.03;7.47;;;;;;;;;;4906290;29;20284;-73
2021/08/02 08:12:48;;;;;;;10.93;7.07;;;;;;;;;;4906304;29;20212;-73
2021/08/02 08:15:16;;;;;;;11.73;7.53;;;;;;;;;;4907469;29;20314;-74
2021/08/02 08:17:43;;;;;;;11.47;6.87;;;;;;;;;;4907163;29;20552;-73
2021/08/02 08:20:12;;;;;;;11.93;7.23;;;;;;;;;;4903799;29;20318;-74
2021/08/02 08:25:44;;;;;;;10.03;6.60;;;;;;;;;;4903729;29;20191;-73
2021/08/02 08:28:11;;;;;;;9.10;6.00;;;;;;;;;;4906697;29;20295;-74
2021/08/02 08:30:38;;;;;;;7.93;5.10;;;;;;;;;;4909769;29;20270;-73
2021/08/02 08:33:05;;;;;;;9.57;6.30;;;;;;;;;;4911147;29;20243;-73
2021/08/02 08:35:33;;;;;;;8.23;5.97;;;;;;;;;;4905437;29;20294;-74
2021/08/02 08:38:00;;;;;;;8.87;6.23;;;;;;;;;;4908495;29;20216;-73
2021/08/02 08:43:32;;;;;;;6.90;4.17;;;;;;;;;;4907538;29;20194;-73
2021/08/02 08:45:59;;;;;;;8.40;4.20;;;;;;;;;;4912020;29;20221;-73
2021/08/02 08:48:28;;;;;;;5.93;3.67;;;;;;;;;;4907005;29;20304;-73
2021/08/02 08:50:56;;;;;;;3.30;2.87;;;;;;;;;;4907349;29;20304;-74
2021/08/02 08:53:23;;;;;;;4.40;3.50;;;;;;;;;;4910815;29;20215;-72
2021/08/02 08:55:50;;;;;;;4.00;3.27;;;;;;;;;;4911556;29;20298;-74
2021/08/02 08:58:34;;;;;;;6.33;3.60;;;;;;;;;;4910131;29;20597;-74
2021/08/02 09:01:01;;;;;;;4.10;3.13;;;;;;;;;;4906743;29;20320;-74
2021/08/02 09:03:29;;;;;;;2.90;2.63;;;;;;;;;;4911147;29;20230;-74
2021/08/02 09:06:02;;;;;;;4.47;3.00;;;;;;;;;;4907997;29;20214;-74
2021/08/02 09:08:29;;;;;;;5.83;2.80;;;;;;;;;;4909327;29;20215;-74
2021/08/02 09:10:57;;;;;;;4.33;2.60;;;;;;;;;;4905380;29;20232;-74
2021/08/02 09:13:29;;;;;;;4.83;2.47;;;;;;;;;;4908044;29;20224;-74
2021/08/02 09:15:58;;;;;;;3.87;2.50;;;;;;;;;;4909284;29;20215;-74
2021/08/02 09:18:25;;;;;;;5.00;2.77;;;;;;;;;;4909914;29;20299;-74
2021/08/02 09:21:02;;;;;;;5.10;2.70;;;;;;;;;;4910460;29;20762;-74
2021/08/02 09:23:30;;;;;;;3.90;2.50;;;;;;;;;;4914627;29;20659;-74
2021/08/02 09:25:59;;;;;;;3.77;2.50;;;;;;;;;;4909509;29;20603;-74
2021/08/02 09:28:27;;;;;;;3.60;2.10;;;;;;;;;;4909084;29;20226;-74
2021/08/02 09:30:55;;;;;;;4.70;2.60;;;;;;;;;;4909718;29;20328;-74
2021/08/02 09:33:24;;;;;;;7.13;2.70;;;;;;;;;;4916652;29;20299;-74
2021/08/02 09:35:52;;;;;;;2.73;2.37;;;;;;;;;;4911967;29;20692;-74
2021/08/02 09:38:21;;;;;;;4.90;2.50;;;;;;;;;;4907771;29;20218;-74
2021/08/02 09:40:49;;;;;;;4.33;2.60;;;;;;;;;;4908862;29;20318;-74
2021/08/02 09:43:19;;;;;;;5.33;2.80;;;;;;;;;;4910011;29;20264;-74
2021/08/02 09:45:47;;;;;;;4.30;2.83;;;;;;;;;;4916297;29;20219;-74
2021/08/02 09:48:15;;;;;;;8.03;2.97;;;;;;;;;;4909405;29;20674;-74
2021/08/02 09:50:44;;;;;;;3.27;2.70;;;;;;;;;;4901399;29;20257;-74
2021/08/02 09:53:13;;;;;;;5.23;2.87;;;;;;;;;;4906916;29;20584;-74
2021/08/02 09:55:42;;;;;;;5.73;2.80;;;;;;;;;;4905084;29;20739;-74
2021/08/02 09:58:11;;;;;;;3.70;2.60;;;;;;;;;;4909744;29;20241;-74
2021/08/02 10:00:39;;;;;;;5.83;2.67;;;;;;;;;;4904037;29;20593;-74
2021/08/02 10:03:06;;;;;;;3.70;2.70;;;;;;;;;;4906240;29;20327;-74
2021/08/02 10:05:37;;;;;;;2.77;2.30;;;;;;;;;;4905934;29;20215;-74
2021/08/02 10:08:06;;;;;;;3.53;1.80;;;;;;;;;;4906035;29;20580;-74
2021/08/02 10:10:33;;;;;;;3.17;1.70;;;;;;;;;;4903183;29;20231;-74
2021/08/02 10:13:00;;;;;;;2.67;1.60;;;;;;;;;;4911849;29;20291;-73
2021/08/02 10:15:29;;;;;;;3.97;2.00;;;;;;;;;;4913814;29;20219;-74
2021/08/02 10:17:58;;;;;;;4.33;1.73;;;;;;;;;;4907447;29;20236;-74
2021/08/02 10:20:26;;;;;;;2.07;1.60;;;;;;;;;;4902947;29;20632;-74
2021/08/02 10:22:53;;;;;;;3.57;1.70;;;;;;;;;;4915307;29;20224;-74
2021/08/02 10:25:33;;;;;;;2.40;1.60;;;;;;;;;;4913923;29;20221;-73
2021/08/02 10:28:08;;;;;;;3.53;1.67;;;;;;;;;;4908968;29;20212;-73
2021/08/02 10:30:35;;;;;;;2.53;1.63;;;;;;;;;;4918263;29;20310;-73
2021/08/02 10:33:03;;;;;;;3.90;1.80;;;;;;;;;;4912699;29;20586;-72
2021/08/02 10:35:31;;;;;;;1.97;1.50;;;;;;;;;;4913695;29;20218;-73
2021/08/02 10:38:01;;;;;;;3.23;1.93;;;;;;;;;;4914585;29;20220;-73
2021/08/02 10:40:28;;;;;;;2.13;1.77;;;;;;;;;;4910415;29;20239;-73
2021/08/02 10:42:57;;;;;;;2.93;1.97;;;;;;;;;;4906376;29;20585;-73
2021/08/02 10:45:31;;;;;;;5.20;2.20;;;;;;;;;;4914230;29;20205;-73
2021/08/02 10:47:59;;;;;;;2.40;1.80;;;;;;;;;;4914961;29;20228;-74
2021/08/02 10:50:34;;;;;;;2.07;1.70;;;;;;;;;;4913737;29;20681;-74
2021/08/02 10:53:11;;;;;;;3.13;2.00;;;;;;;;;;4904138;29;20236;-73
2021/08/02 10:55:43;;;;;;;1.70;1.60;;;;;;;;;;4905356;29;20311;-73
2021/08/02 10:58:12;;;;;;;3.53;1.90;;;;;;;;;;4907146;29;20212;-74
2021/08/02 11:00:39;;;;;;;3.63;2.47;;;;;;;;;;4919268;29;20234;-74
2021/08/02 11:03:09;;;;;;;4.00;2.30;;;;;;;;;;4908351;29;20209;-74
2021/08/02 11:05:37;;;;;;;5.77;2.30;;;;;;;;;;4912598;29;20208;-74
2021/08/02 11:08:06;;;;;;;4.80;2.40;;;;;;;;;;4919799;29;20226;-74
2021/08/02 11:10:37;;;;;;;3.27;2.20;;;;;;;;;;4916694;29;20641;-74
2021/08/02 11:13:04;;;;;;;3.60;2.90;;;;;;;;;;4914652;29;20239;-74
2021/08/02 11:15:43;;;;;;;3.57;2.77;;;;;;;;;;4906881;29;20220;-74
2021/08/02 11:18:11;;;;;;;3.67;2.60;;;;;;;;;;4924907;29;20208;-74
2021/08/02 11:20:49;;;;;;;3.27;2.60;;;;;;;;;;4940764;23;20239;-88
2021/08/02 11:26:53;;;;;;;2.37;2.10;;;;;;;;;;4923194;29;20226;-86
2021/08/02 11:32:44;;;;;;;3.47;2.20;;;;;;;;;;4859464;29;20240;-85
2021/08/02 11:38:18;;;;;;;2.97;2.17;;;;;;;;;;4829178;29;20271;-85
2021/08/02 11:41:35;;;;;;;4.10;2.20;;;;;;;;;;4846253;29;20511;-85
2021/08/02 11:44:19;;;;;;;2.63;2.30;;;;;;;;;;4857995;29;20357;-88
2021/08/02 11:49:52;;;;;;;3.50;2.30;;;;;;;;;;4923804;29;20226;-74
2021/08/02 11:52:21;;;;;;;2.57;2.30;;;;;;;;;;4913941;29;20694;-73
2021/08/02 11:54:59;;;;;;;2.87;2.33;;;;;;;;;;4905047;29;20247;-74
2021/08/02 11:57:59;;;;;;;2.83;2.10;;;;;;;;;;4915795;29;20583;-74
2021/08/02 12:00:27;;;;;;;5.03;1.93;;;;;;;;;;4906485;29;20235;-73
2021/08/02 12:02:54;;;;;;;2.50;2.00;;;;;;;;;;4908217;29;20239;-73
2021/08/02 12:05:23;;;;;;;3.77;1.80;;;;;;;;;;4919100;29;20349;-74
2021/08/02 12:07:53;;;;;;;2.83;1.90;;;;;;;;;;4924254;29;20254;-74
2021/08/02 14:46:19;;;;;;;6.33;3.53;;;;;;;;;;4844224;29;20284;-80
2021/08/02 14:48:50;;;;;;;3.73;3.00;;;;;;;;;;4906066;29;20244;-82
2021/08/02 14:51:21;;;;;;;4.47;3.10;;;;;;;;;;4906678;29;20212;-80
2021/08/02 14:53:48;;;;;;;4.20;3.07;;;;;;;;;;4901726;29;20264;-81
2021/08/02 14:56:15;;;;;;;4.30;3.40;;;;;;;;;;4907284;29;20635;-81
2021/08/02 14:58:43;;;;;;;4.23;3.40;;;;;;;;;;4900972;29;20236;-81
2021/08/02 15:01:11;;;;;;;4.67;3.07;;;;;;;;;;4901198;29;20240;-81
2021/08/02 15:03:41;;;;;;;4.37;2.70;;;;;;;;;;4912065;29;20295;-81
2021/08/02 15:06:08;;;;;;;6.97;3.30;;;;;;;;;;4908857;29;20228;-81
2021/08/02 15:08:37;;;;;;;6.93;3.30;;;;;;;;;;4900763;29;20693;-81
2021/08/02 15:11:04;;;;;;;7.53;2.83;;;;;;;;;;4900667;29;20215;-81
2021/08/02 15:13:31;;;;;;;4.67;3.20;;;;;;;;;;4899434;29;20311;-82
2021/08/02 15:15:58;;;;;;;5.10;2.93;;;;;;;;;;4897707;29;20251;-83
2021/08/02 15:18:32;;;;;;;6.90;3.10;;;;;;;;;;4891946;29;20334;-84
2021/08/02 15:21:01;;;;;;;3.67;3.27;;;;;;;;;;4899241;29;20291;-82
2021/08/02 15:23:31;;;;;;;4.60;3.30;;;;;;;;;;4901107;29;20557;-83
2021/08/02 15:26:01;;;;;;;6.73;3.60;;;;;;;;;;4901843;29;20212;-82
2021/08/02 15:28:28;;;;;;;5.03;3.70;;;;;;;;;;4900207;29;20776;-84
2021/08/02 15:30:55;;;;;;;4.23;3.27;;;;;;;;;;4889273;29;20223;-83
2021/08/02 15:33:22;;;;;;;6.23;3.70;;;;;;;;;;4902456;29;20287;-83
2021/08/02 15:35:52;;;;;;;5.07;3.60;;;;;;;;;;4895100;29;20736;-83
2021/08/02 15:38:21;;;;;;;8.10;3.40;;;;;;;;;;4902453;29;20906;-83
2021/08/02 15:40:48;;;;;;;5.83;3.67;;;;;;;;;;4907712;29;20657;-83
2021/08/02 15:43:22;;;;;;;4.13;3.37;;;;;;;;;;4898960;29;20227;-83
2021/08/02 15:45:49;;;;;;;5.90;3.43;;;;;;;;;;4907234;29;20218;-82
2021/08/02 15:48:16;;;;;;;6.73;2.80;;;;;;;;;;4904831;29;20259;-82
2021/08/02 15:50:44;;;;;;;4.80;2.77;;;;;;;;;;4903122;29;20228;-82
2021/08/02 15:53:12;;;;;;;4.13;2.70;;;;;;;;;;4896885;29;20311;-82
2021/08/02 15:55:42;;;;;;;4.33;2.70;;;;;;;;;;4901711;29;20219;-83
2021/08/02 15:58:10;;;;;;;4.13;2.50;;;;;;;;;;4897256;29;20251;-82
2021/08/02 16:00:37;;;;;;;4.90;3.00;;;;;;;;;;4898359;29;20208;-83
2021/08/02 16:03:05;;;;;;;4.03;2.70;;;;;;;;;;4901991;29;20216;-82
2021/08/02 16:05:33;;;;;;;5.77;2.10;;;;;;;;;;4894346;29;20300;-82
2021/08/02 16:08:02;;;;;;;3.37;2.70;;;;;;;;;;4897976;29;20259;-83
2021/08/02 16:10:30;;;;;;;3.93;2.63;;;;;;;;;;4894919;29;20238;-82
2021/08/02 16:13:00;;;;;;;5.20;2.80;;;;;;;;;;4891101;29;20231;-82
2021/08/02 16:15:27;;;;;;;4.53;3.07;;;;;;;;;;4892104;29;20224;-81
2021/08/02 16:17:56;;;;;;;5.70;3.17;;;;;;;;;;4898207;29;20338;-83
2021/08/02 16:20:24;;;;;;;7.40;2.83;;;;;;;;;;4898007;29;20291;-82
2021/08/02 16:22:51;;;;;;;5.80;3.30;;;;;;;;;;4891227;29;20213;-82
2021/08/02 16:25:19;;;;;;;5.60;2.97;;;;;;;;;;4893585;29;20243;-82
2021/08/02 16:27:47;;;;;;;6.67;2.83;;;;;;;;;;4897387;29;20287;-81
2021/08/02 16:30:16;;;;;;;3.87;2.43;;;;;;;;;;4898636;29;20326;-81
2021/08/02 16:32:45;;;;;;;6.80;3.10;;;;;;;;;;4896903;29;20220;-82
2021/08/02 16:35:13;;;;;;;3.77;2.70;;;;;;;;;;4904921;29;20207;-81
2021/08/02 16:37:40;;;;;;;5.07;3.17;;;;;;;;;;4899434;29;20212;-82
2021/08/02 16:40:08;;;;;;;4.07;2.47;;;;;;;;;;4895337;29;20271;-81
2021/08/02 16:42:35;;;;;;;5.57;3.17;;;;;;;;;;4899975;29;20640;-82
2021/08/02 16:45:04;;;;;;;5.07;2.67;;;;;;;;;;4901256;29;20250;-81
2021/08/02 16:47:33;;;;;;;4.70;2.93;;;;;;;;;;4905787;29;20754;-82
2021/08/02 16:50:00;;;;;;;3.80;2.90;;;;;;;;;;4895742;29;20213;-82
2021/08/02 16:52:27;;;;;;;4.80;2.70;;;;;;;;;;4895946;29;20220;-82
2021/08/02 16:54:54;;;;;;;8.23;2.90;;;;;;;;;;4899551;29;20276;-81
2021/08/02 16:57:22;;;;;;;5.67;3.20;;;;;;;;;;4899917;29;20255;-81
2021/08/02 16:59:49;;;;;;;6.27;3.13;;;;;;;;;;4898325;29;20593;-81
2021/08/02 17:02:16;;;;;;;6.23;2.97;;;;;;;;;;4899547;29;20224;-81
2021/08/02 17:04:44;;;;;;;4.27;2.93;;;;;;;;;;4904644;29;20252;-81
2021/08/02 17:07:13;;;;;;;5.13;3.03;;;;;;;;;;4895484;29;20288;-82
2021/08/02 17:09:41;;;;;;;4.27;2.70;;;;;;;;;;4899374;29;20271;-83
2021/08/02 17:12:08;;;;;;;3.73;2.40;;;;;;;;;;4900449;29;20239;-83
2021/08/02 17:14:35;;;;;;;4.70;2.37;;;;;;;;;;4899532;29;20216;-84
2021/08/02 17:17:02;;;;;;;3.60;2.50;;;;;;;;;;4900671;29;20220;-83
2021/08/02 17:19:30;;;;;;;6.30;2.57;;;;;;;;;;4900442;29;20296;-82
2021/08/02 17:21:58;;;;;;;6.77;2.50;;;;;;;;;;4900900;29;20213;-82
2021/08/02 17:24:25;;;;;;;3.97;2.40;;;;;;;;;;4897132;29;20213;-82
2021/08/02 17:26:53;;;;;;;3.03;2.17;;;;;;;;;;4895311;29;20299;-81
2021/08/02 17:29:21;;;;;;;3.60;2.47;;;;;;;;;;4863496;29;20318;-82
2021/08/02 17:31:49;;;;;;;3.73;2.57;;;;;;;;;;4894800;29;20208;-81
2021/08/02 17:34:16;;;;;;;3.87;2.40;;;;;;;;;;4899662;29;20290;-82
2021/08/02 17:36:43;;;;;;;4.00;2.50;;;;;;;;;;4899947;29;20339;-82
2021/08/02 17:39:12;;;;;;;3.87;2.50;;;;;;;;;;4894485;29;20655;-82
2021/08/02 17:41:39;;;;;;;6.07;2.70;;;;;;;;;;4899922;29;20235;-83
2021/08/02 17:44:06;;;;;;;4.03;2.30;;;;;;;;;;4900237;29;20271;-83
2021/08/02 17:46:33;;;;;;;3.87;2.60;;;;;;;;;;4898745;29;20316;-82
2021/08/02 17:49:01;;;;;;;5.53;2.50;;;;;;;;;;4899831;29;21995;-82
2021/08/02 17:51:29;;;;;;;5.57;2.87;;;;;;;;;;4900399;29;20267;-83
2021/08/02 17:53:56;;;;;;;3.33;2.63;;;;;;;;;;4897156;29;20284;-82
2021/08/02 17:56:25;;;;;;;4.57;2.90;;;;;;;;;;4898629;29;20331;-83
2021/08/02 17:58:52;;;;;;;6.20;2.87;;;;;;;;;;4898138;29;20364;-83
2021/08/02 18:01:20;;;;;;;10.13;3.13;;;;;;;;;;4896075;29;20257;-82
2021/08/02 18:03:47;;;;;;;4.37;2.97;;;;;;;;;;4890667;29;20212;-83
2021/08/02 18:06:15;;;;;;;8.87;4.30;;;;;;;;;;4897728;29;20280;-82
2021/08/02 18:08:42;;;;;;;6.00;3.03;;;;;;;;;;4894842;29;20234;-81
2021/08/02 18:11:09;;;;;;;6.03;3.40;;;;;;;;;;4896548;29;20295;-82
2021/08/02 18:13:38;;;;;;;4.47;3.00;;;;;;;;;;4895742;29;20224;-82
2021/08/02 18:16:06;;;;;;;6.43;3.10;;;;;;;;;;4897952;29;20658;-82